Time,TemperatureF,DewpointF,PressureIn,WindDirection,WindDirectionDegrees,WindSpeedMPH,WindSpeedGustMPH,Humidity,HourlyPrecipIn,Conditions,Clouds,dailyrainin,SoftwareType,DateUTC
2013-03-24 00:00:00,24.9,21.3,30.08,North,350,0.0,0.0,86,0.00,,,0.00,LWC V2.11 B50,2013-03-24 04:00:00,
2013-03-24 00:04:00,24.6,21.0,30.07,North,350,0.0,0.0,86,0.00,,,0.00,LWC V2.11 B50,2013-03-24 04:04:00,
2013-03-24 00:05:00,24.4,20.8,30.07,North,350,0.0,0.0,86,0.00,,,0.00,LWC V2.11 B50,2013-03-24 04:05:00,
2013-03-24 00:08:00,24.1,20.3,30.07,North,350,0.0,0.0,85,0.00,,,0.00,LWC V2.11 B50,2013-03-24 04:08:00,
2013-03-24 00:13:00,23.3,19.7,30.07,North,350,0.0,0.0,86,0.00,,,0.00,LWC V2.11 B50,2013-03-24 04:13:00,
2013-03-24 00:18:00,23.5,20.7,30.07,SW,226,0.0,0.0,89,0.00,,,0.00,LWC V2.11 B50,2013-03-24 04:18:00,
2013-03-24 00:23:00,23.6,20.6,30.07,SW,226,0.0,0.0,88,0.00,,,0.00,LWC V2.11 B50,2013-03-24 04:23:00,
2013-03-24 00:28:00,22.6,19.1,30.06,SW,226,0.0,0.0,86,0.00,,,0.00,LWC V2.11 B50,2013-03-24 04:28:00,
2013-03-24 00:33:00,21.6,18.1,30.06,SW,226,0.0,0.0,86,0.00,,,0.00,LWC V2.11 B50,2013-03-24 04:33:00,
2013-03-24 00:38:00,21.1,18.1,30.05,SW,226,0.0,0.0,88,0.00,,,0.00,LWC V2.11 B50,2013-03-24 04:38:00,
2013-03-24 00:43:00,20.7,17.7,30.05,SW,227,0.0,0.0,88,0.00,,,0.00,LWC V2.11 B50,2013-03-24 04:43:00,
2013-03-24 00:48:00,20.1,17.4,30.05,SSE,153,0.0,1.0,89,0.00,,,0.00,LWC V2.11 B50,2013-03-24 04:48:00,
2013-03-24 00:53:00,19.8,17.1,30.05,SSE,153,0.0,0.0,89,0.00,,,0.00,LWC V2.11 B50,2013-03-24 04:53:00,
2013-03-24 00:58:00,19.7,17.3,30.05,SSE,153,0.0,0.0,90,0.00,,,0.00,LWC V2.11 B50,2013-03-24 04:58:00,
2013-03-24 01:03:00,19.0,16.3,30.05,SE,142,0.0,1.0,89,0.00,,,0.00,LWC V2.11 B50,2013-03-24 05:03:00,
2013-03-24 01:08:00,18.5,15.8,30.05,SE,143,0.0,1.0,89,0.00,,,0.00,LWC V2.11 B50,2013-03-24 05:08:00,
2013-03-24 01:13:00,18.3,15.9,30.04,SE,142,0.0,0.0,90,0.00,,,0.00,LWC V2.11 B50,2013-03-24 05:13:00,
2013-03-24 01:18:00,17.3,14.6,30.04,SE,142,0.0,0.0,89,0.00,,,0.00,LWC V2.11 B50,2013-03-24 05:18:00,
2013-03-24 01:23:00,16.8,14.1,30.04,SE,142,0.0,0.0,89,0.00,,,0.00,LWC V2.11 B50,2013-03-24 05:23:00,
2013-03-24 01:28:00,16.3,13.6,30.03,SE,142,0.0,0.0,89,0.00,,,0.00,LWC V2.11 B50,2013-03-24 05:28:00,
2013-03-24 01:33:00,15.7,13.3,30.02,SE,143,0.0,0.0,90,0.00,,,0.00,LWC V2.11 B50,2013-03-24 05:33:00,
2013-03-24 01:38:00,15.8,13.6,30.02,SE,143,0.0,0.0,91,0.00,,,0.00,LWC V2.11 B50,2013-03-24 05:38:00,
2013-03-24 01:43:00,16.7,14.8,30.01,SSW,195,0.0,0.0,92,0.00,,,0.00,LWC V2.11 B50,2013-03-24 05:43:00,
2013-03-24 01:48:00,17.4,15.7,30.00,SSW,195,0.0,0.0,93,0.00,,,0.00,LWC V2.11 B50,2013-03-24 05:48:00,
2013-03-24 01:53:00,17.9,16.2,30.00,SW,218,0.0,1.0,93,0.00,,,0.00,LWC V2.11 B50,2013-03-24 05:53:00,
2013-03-24 01:58:00,17.9,16.0,29.99,SW,229,0.0,0.0,92,0.00,,,0.00,LWC V2.11 B50,2013-03-24 05:58:00,
2013-03-24 02:03:00,17.6,15.4,29.99,SW,229,0.0,0.0,91,0.00,,,0.00,LWC V2.11 B50,2013-03-24 06:03:00,
2013-03-24 02:08:00,17.3,15.4,29.98,SSW,207,0.0,1.0,92,0.00,,,0.00,LWC V2.11 B50,2013-03-24 06:08:00,
2013-03-24 02:13:00,17.5,15.6,29.99,WSW,240,1.0,1.0,92,0.00,,,0.00,LWC V2.11 B50,2013-03-24 06:13:00,
2013-03-24 02:18:00,17.9,16.0,29.99,WSW,243,0.0,2.0,92,0.00,,,0.00,LWC V2.11 B50,2013-03-24 06:18:00,
2013-03-24 02:23:00,18.1,16.2,30.00,SW,233,0.0,1.0,92,0.00,,,0.00,LWC V2.11 B50,2013-03-24 06:23:00,
2013-03-24 02:28:00,17.8,15.6,30.01,SW,222,0.0,1.0,91,0.00,,,0.00,LWC V2.11 B50,2013-03-24 06:28:00,
2013-03-24 02:33:00,17.5,15.3,30.02,South,172,0.0,1.0,91,0.00,,,0.00,LWC V2.11 B50,2013-03-24 06:33:00,
2013-03-24 02:38:00,17.4,15.2,30.03,SW,215,0.0,1.0,91,0.00,,,0.00,LWC V2.11 B50,2013-03-24 06:38:00,
2013-03-24 02:43:00,16.8,14.4,30.03,SW,215,0.0,0.0,90,0.00,,,0.00,LWC V2.11 B50,2013-03-24 06:43:00,
2013-03-24 02:48:00,16.3,13.9,30.03,SSW,212,0.0,0.0,90,0.00,,,0.00,LWC V2.11 B50,2013-03-24 06:48:00,
2013-03-24 02:53:00,16.0,13.6,30.03,SSW,212,0.0,0.0,90,0.00,,,0.00,LWC V2.11 B50,2013-03-24 06:53:00,
2013-03-24 02:58:00,15.3,12.9,30.03,SSW,213,0.0,0.0,90,0.00,,,0.00,LWC V2.11 B50,2013-03-24 06:58:00,
2013-03-24 03:03:00,14.8,12.4,30.03,NNW,348,0.0,0.0,90,0.00,,,0.00,LWC V2.11 B50,2013-03-24 07:03:00,
2013-03-24 03:08:00,14.1,11.7,30.02,NNW,348,0.0,0.0,90,0.00,,,0.00,LWC V2.11 B50,2013-03-24 07:08:00,
2013-03-24 03:13:00,13.6,11.2,30.02,SW,214,1.0,1.0,90,0.00,,,0.00,LWC V2.11 B50,2013-03-24 07:13:00,
2013-03-24 03:18:00,14.3,12.4,30.02,SW,214,0.0,0.0,92,0.00,,,0.00,LWC V2.11 B50,2013-03-24 07:18:00,
2013-03-24 03:23:00,14.5,12.6,30.01,SW,214,0.0,0.0,92,0.00,,,0.00,LWC V2.11 B50,2013-03-24 07:23:00,
2013-03-24 03:28:00,14.5,12.6,30.01,SW,214,0.0,0.0,92,0.00,,,0.00,LWC V2.11 B50,2013-03-24 07:28:00,
2013-03-24 03:33:00,15.1,13.4,30.01,SW,214,0.0,0.0,93,0.00,,,0.00,LWC V2.11 B50,2013-03-24 07:33:00,
2013-03-24 03:38:00,14.5,12.4,30.01,SW,214,0.0,0.0,91,0.00,,,0.00,LWC V2.11 B50,2013-03-24 07:38:00,
2013-03-24 03:43:00,14.4,12.5,30.01,SW,214,0.0,0.0,92,0.00,,,0.00,LWC V2.11 B50,2013-03-24 07:43:00,
2013-03-24 03:48:00,14.5,12.6,30.01,SW,214,0.0,0.0,92,0.00,,,0.00,LWC V2.11 B50,2013-03-24 07:48:00,
2013-03-24 03:53:00,13.3,10.9,30.01,SW,214,0.0,0.0,90,0.00,,,0.00,LWC V2.11 B50,2013-03-24 07:53:00,
2013-03-24 03:58:00,13.5,11.4,30.01,SW,214,0.0,0.0,91,0.00,,,0.00,LWC V2.11 B50,2013-03-24 07:58:00,
2013-03-24 04:03:00,13.4,11.3,30.01,SSE,149,0.0,0.0,91,0.00,,,0.00,LWC V2.11 B50,2013-03-24 08:03:00,
2013-03-24 04:08:00,13.1,11.0,30.02,SE,139,0.0,0.0,91,0.00,,,0.00,LWC V2.11 B50,2013-03-24 08:08:00,
2013-03-24 04:13:00,13.3,11.2,30.02,SSE,149,0.0,0.0,91,0.00,,,0.00,LWC V2.11 B50,2013-03-24 08:13:00,
2013-03-24 04:18:00,13.8,11.7,30.02,SSE,149,0.0,0.0,91,0.00,,,0.00,LWC V2.11 B50,2013-03-24 08:18:00,
2013-03-24 04:23:00,14.0,11.9,30.03,SE,146,0.0,0.0,91,0.00,,,0.00,LWC V2.11 B50,2013-03-24 08:23:00,
2013-03-24 04:28:00,14.4,12.3,30.04,SE,146,0.0,0.0,91,0.00,,,0.00,LWC V2.11 B50,2013-03-24 08:28:00,
2013-03-24 04:33:00,15.0,13.1,30.04,SE,146,0.0,0.0,92,0.00,,,0.00,LWC V2.11 B50,2013-03-24 08:33:00,
2013-03-24 04:38:00,15.3,13.2,30.04,SSE,147,0.0,0.0,91,0.00,,,0.00,LWC V2.11 B50,2013-03-24 08:38:00,
2013-03-24 04:43:00,15.6,13.5,30.04,East,87,0.0,0.0,91,0.00,,,0.00,LWC V2.11 B50,2013-03-24 08:43:00,
2013-03-24 04:48:00,16.0,14.1,30.04,ENE,77,0.0,0.0,92,0.00,,,0.00,LWC V2.11 B50,2013-03-24 08:48:00,
2013-03-24 04:53:00,16.3,14.4,30.04,ENE,78,0.0,0.0,92,0.00,,,0.00,LWC V2.11 B50,2013-03-24 08:53:00,
2013-03-24 04:58:00,16.4,14.2,30.04,ENE,78,0.0,0.0,91,0.00,,,0.00,LWC V2.11 B50,2013-03-24 08:58:00,
2013-03-24 05:03:00,16.5,14.3,30.04,ENE,77,0.0,0.0,91,0.00,,,0.00,LWC V2.11 B50,2013-03-24 09:03:00,
2013-03-24 05:08:00,16.6,14.4,30.03,ENE,78,0.0,0.0,91,0.00,,,0.00,LWC V2.11 B50,2013-03-24 09:08:00,
2013-03-24 05:13:00,16.7,14.5,30.03,ENE,77,0.0,0.0,91,0.00,,,0.00,LWC V2.11 B50,2013-03-24 09:13:00,
2013-03-24 05:18:00,16.8,14.6,30.03,SSW,204,0.0,0.0,91,0.00,,,0.00,LWC V2.11 B50,2013-03-24 09:18:00,
2013-03-24 05:23:00,17.0,14.8,30.03,SW,224,0.0,0.0,91,0.00,,,0.00,LWC V2.11 B50,2013-03-24 09:23:00,
2013-03-24 05:28:00,17.0,14.8,30.03,SW,224,0.0,0.0,91,0.00,,,0.00,LWC V2.11 B50,2013-03-24 09:28:00,
2013-03-24 05:33:00,17.0,14.8,30.03,SW,224,0.0,0.0,91,0.00,,,0.00,LWC V2.11 B50,2013-03-24 09:33:00,
2013-03-24 05:38:00,16.8,14.6,30.03,SW,224,0.0,0.0,91,0.00,,,0.00,LWC V2.11 B50,2013-03-24 09:38:00,
2013-03-24 05:43:00,16.6,14.4,30.03,SW,224,0.0,0.0,91,0.00,,,0.00,LWC V2.11 B50,2013-03-24 09:43:00,
2013-03-24 05:48:00,16.3,14.1,30.02,SW,224,0.0,0.0,91,0.00,,,0.00,LWC V2.11 B50,2013-03-24 09:48:00,
2013-03-24 05:53:00,15.8,13.6,30.02,SW,224,0.0,0.0,91,0.00,,,0.00,LWC V2.11 B50,2013-03-24 09:53:00,
2013-03-24 05:58:00,15.6,13.5,30.02,SW,224,0.0,0.0,91,0.00,,,0.00,LWC V2.11 B50,2013-03-24 09:58:00,
2013-03-24 06:03:00,15.2,13.1,30.02,SW,224,0.0,0.0,91,0.00,,,0.00,LWC V2.11 B50,2013-03-24 10:03:00,
2013-03-24 06:08:00,14.9,12.8,30.02,SW,224,0.0,0.0,91,0.00,,,0.00,LWC V2.11 B50,2013-03-24 10:08:00,
2013-03-24 06:13:00,14.9,12.8,30.02,SW,224,0.0,0.0,91,0.00,,,0.00,LWC V2.11 B50,2013-03-24 10:13:00,
2013-03-24 06:18:00,15.1,13.2,30.02,SW,224,0.0,0.0,92,0.00,,,0.00,LWC V2.11 B50,2013-03-24 10:18:00,
2013-03-24 06:23:00,15.0,13.1,30.02,SW,224,0.0,0.0,92,0.00,,,0.00,LWC V2.11 B50,2013-03-24 10:23:00,
2013-03-24 06:28:00,14.6,12.5,30.03,SW,224,0.0,0.0,91,0.00,,,0.00,LWC V2.11 B50,2013-03-24 10:28:00,
2013-03-24 06:33:00,14.4,12.3,30.02,SW,224,0.0,0.0,91,0.00,,,0.00,LWC V2.11 B50,2013-03-24 10:33:00,
2013-03-24 06:38:00,14.1,12.0,30.02,SW,224,0.0,0.0,91,0.00,,,0.00,LWC V2.11 B50,2013-03-24 10:38:00,
2013-03-24 06:43:00,13.4,11.0,30.02,SW,224,0.0,0.0,90,0.00,,,0.00,LWC V2.11 B50,2013-03-24 10:43:00,
2013-03-24 06:48:00,13.2,11.1,30.02,SW,224,0.0,0.0,91,0.00,,,0.00,LWC V2.11 B50,2013-03-24 10:48:00,
2013-03-24 06:53:00,12.8,10.4,30.02,SW,224,0.0,0.0,90,0.00,,,0.00,LWC V2.11 B50,2013-03-24 10:53:00,
2013-03-24 06:58:00,12.4,10.0,30.01,SW,224,0.0,0.0,90,0.00,,,0.00,LWC V2.11 B50,2013-03-24 10:58:00,
2013-03-24 07:03:00,12.2,10.1,30.01,SW,224,0.0,0.0,91,0.00,,,0.00,LWC V2.11 B50,2013-03-24 11:03:00,
2013-03-24 07:08:00,12.0,9.9,30.01,SW,224,0.0,0.0,91,0.00,,,0.00,LWC V2.11 B50,2013-03-24 11:08:00,
2013-03-24 07:13:00,11.7,9.3,30.02,SW,224,0.0,0.0,90,0.00,,,0.00,LWC V2.11 B50,2013-03-24 11:13:00,
2013-03-24 07:18:00,11.4,9.0,30.01,SW,224,0.0,0.0,90,0.00,,,0.00,LWC V2.11 B50,2013-03-24 11:18:00,
2013-03-24 07:23:00,11.2,8.9,30.02,SW,224,0.0,0.0,90,0.00,,,0.00,LWC V2.11 B50,2013-03-24 11:23:00,
2013-03-24 07:28:00,11.1,8.8,30.01,South,170,0.0,0.0,90,0.00,,,0.00,LWC V2.11 B50,2013-03-24 11:28:00,
2013-03-24 07:33:00,11.1,9.0,30.02,South,170,0.0,0.0,91,0.00,,,0.00,LWC V2.11 B50,2013-03-24 11:33:00,
2013-03-24 07:38:00,11.4,9.3,30.02,South,169,0.0,0.0,91,0.00,,,0.00,LWC V2.11 B50,2013-03-24 11:38:00,
2013-03-24 07:43:00,12.1,10.0,30.01,SSE,153,0.0,0.0,91,0.00,,,0.00,LWC V2.11 B50,2013-03-24 11:43:00,
2013-03-24 07:48:00,12.3,10.2,30.01,SSE,154,0.0,0.0,91,0.00,,,0.00,LWC V2.11 B50,2013-03-24 11:48:00,
2013-03-24 07:53:00,12.2,10.1,30.01,SSE,154,0.0,0.0,91,0.00,,,0.00,LWC V2.11 B50,2013-03-24 11:53:00,
2013-03-24 07:58:00,12.5,10.4,30.01,SSE,153,0.0,0.0,91,0.00,,,0.00,LWC V2.11 B50,2013-03-24 11:58:00,
2013-03-24 08:03:00,12.9,10.8,30.01,SSE,153,0.0,0.0,91,0.00,,,0.00,LWC V2.11 B50,2013-03-24 12:03:00,
2013-03-24 08:08:00,13.2,11.1,30.01,SSE,153,0.0,0.0,91,0.00,,,0.00,LWC V2.11 B50,2013-03-24 12:08:00,
2013-03-24 08:13:00,13.4,11.3,30.01,SSE,153,0.0,0.0,91,0.00,,,0.00,LWC V2.11 B50,2013-03-24 12:13:00,
2013-03-24 08:18:00,13.9,11.8,30.01,SSE,155,0.0,0.0,91,0.00,,,0.00,LWC V2.11 B50,2013-03-24 12:18:00,
2013-03-24 08:23:00,14.5,12.4,30.01,SSE,155,0.0,1.0,91,0.00,,,0.00,LWC V2.11 B50,2013-03-24 12:23:00,
2013-03-24 08:28:00,15.1,13.0,30.01,SSE,155,0.0,0.0,91,0.00,,,0.00,LWC V2.11 B50,2013-03-24 12:28:00,
2013-03-24 08:33:00,15.7,13.6,30.02,SSE,155,0.0,0.0,91,0.00,,,0.00,LWC V2.11 B50,2013-03-24 12:33:00,
2013-03-24 08:38:00,16.1,13.9,30.02,SSE,155,0.0,0.0,91,0.00,,,0.00,LWC V2.11 B50,2013-03-24 12:38:00,
2013-03-24 08:43:00,16.8,14.6,30.01,SSE,155,0.0,0.0,91,0.00,,,0.00,LWC V2.11 B50,2013-03-24 12:43:00,
2013-03-24 08:48:00,17.9,16.0,30.01,SSE,155,0.0,0.0,92,0.00,,,0.00,LWC V2.11 B50,2013-03-24 12:48:00,
2013-03-24 08:53:00,18.3,16.1,30.02,SSE,155,0.0,0.0,91,0.00,,,0.00,LWC V2.11 B50,2013-03-24 12:53:00,
2013-03-24 08:58:00,18.8,16.6,30.02,SSE,155,0.0,0.0,91,0.00,,,0.00,LWC V2.11 B50,2013-03-24 12:58:00,
2013-03-24 09:03:00,19.0,16.6,30.01,SSE,155,0.0,0.0,90,0.00,,,0.00,LWC V2.11 B50,2013-03-24 13:03:00,
2013-03-24 09:08:00,19.7,17.5,30.01,SSE,155,0.0,0.0,91,0.00,,,0.00,LWC V2.11 B50,2013-03-24 13:08:00,
2013-03-24 09:13:00,20.5,18.3,30.01,SSE,155,0.0,0.0,91,0.00,,,0.00,LWC V2.11 B50,2013-03-24 13:13:00,
2013-03-24 09:18:00,21.1,18.9,30.01,SSE,155,0.0,0.0,91,0.00,,,0.00,LWC V2.11 B50,2013-03-24 13:18:00,
2013-03-24 09:23:00,21.9,19.4,30.01,SSE,155,0.0,0.0,90,0.00,,,0.00,LWC V2.11 B50,2013-03-24 13:23:00,
2013-03-24 09:28:00,22.5,19.8,30.01,SSE,155,0.0,0.0,89,0.00,,,0.00,LWC V2.11 B50,2013-03-24 13:28:00,
2013-03-24 09:33:00,23.1,20.4,30.01,SSE,155,0.0,0.0,89,0.00,,,0.00,LWC V2.11 B50,2013-03-24 13:33:00,
2013-03-24 09:38:00,24.3,21.5,30.01,SSE,156,0.0,0.0,89,0.00,,,0.00,LWC V2.11 B50,2013-03-24 13:38:00,
2013-03-24 09:43:00,25.5,22.5,30.00,SSE,167,0.0,0.0,88,0.00,,,0.00,LWC V2.11 B50,2013-03-24 13:43:00,
2013-03-24 09:48:00,26.0,22.1,30.00,SSW,201,0.0,0.0,85,0.00,,,0.00,LWC V2.11 B50,2013-03-24 13:48:00,
2013-03-24 09:53:00,26.7,22.8,30.00,SSW,198,0.0,0.0,85,0.00,,,0.00,LWC V2.11 B50,2013-03-24 13:53:00,
2013-03-24 09:58:00,27.2,22.7,30.00,SSE,152,0.0,0.0,83,0.00,,,0.00,LWC V2.11 B50,2013-03-24 13:58:00,
2013-03-24 10:04:00,27.8,23.3,30.00,SSE,160,0.0,0.0,83,0.00,,,0.00,LWC V2.11 B50,2013-03-24 14:04:00,
2013-03-24 10:09:00,28.3,23.2,29.99,SSE,167,0.0,0.0,81,0.00,,,0.00,LWC V2.11 B50,2013-03-24 14:09:00,
2013-03-24 10:14:00,29.0,23.9,29.99,SSE,166,0.0,0.0,81,0.00,,,0.00,LWC V2.11 B50,2013-03-24 14:14:00,
2013-03-24 10:19:00,29.4,23.7,29.99,SSW,201,0.0,0.0,79,0.00,,,0.00,LWC V2.11 B50,2013-03-24 14:19:00,
2013-03-24 10:24:00,30.0,24.3,29.98,SSW,205,0.0,0.0,79,0.00,,,0.00,LWC V2.11 B50,2013-03-24 14:24:00,
2013-03-24 10:29:00,30.9,24.9,29.98,WSW,253,0.0,0.0,78,0.00,,,0.00,LWC V2.11 B50,2013-03-24 14:29:00,
2013-03-24 10:34:00,31.4,24.7,29.97,SE,145,0.0,0.0,76,0.00,,,0.00,LWC V2.11 B50,2013-03-24 14:34:00,
2013-03-24 10:39:00,31.4,24.1,29.96,ENE,77,3.0,6.0,74,0.00,,,0.00,LWC V2.11 B50,2013-03-24 14:39:00,
2013-03-24 10:44:00,30.9,23.6,29.95,East,82,6.0,6.0,74,0.00,,,0.00,LWC V2.11 B50,2013-03-24 14:44:00,
2013-03-24 10:49:00,30.5,23.2,29.95,SE,130,3.0,9.0,74,0.00,,,0.00,LWC V2.11 B50,2013-03-24 14:49:00,
2013-03-24 10:54:00,30.7,23.7,29.94,SE,133,2.0,4.0,75,0.00,,,0.00,LWC V2.11 B50,2013-03-24 14:54:00,
2013-03-24 10:59:00,31.1,23.8,29.94,ESE,116,0.0,4.0,74,0.00,,,0.00,LWC V2.11 B50,2013-03-24 14:59:00,
2013-03-24 11:04:00,31.5,24.2,29.93,ENE,72,1.0,4.0,74,0.00,,,0.00,LWC V2.11 B50,2013-03-24 15:04:00,
2013-03-24 11:09:00,31.6,23.6,29.94,ESE,117,3.0,4.0,72,0.00,,,0.00,LWC V2.11 B50,2013-03-24 15:09:00,
2013-03-24 11:14:00,31.8,23.5,29.93,ENE,72,3.0,6.0,71,0.00,,,0.00,LWC V2.11 B50,2013-03-24 15:14:00,
2013-03-24 11:19:00,32.1,23.8,29.93,SE,134,3.0,5.0,71,0.00,,,0.00,LWC V2.11 B50,2013-03-24 15:19:00,
2013-03-24 11:24:00,32.3,23.3,29.93,SSE,150,5.0,6.0,69,0.00,,,0.00,LWC V2.11 B50,2013-03-24 15:24:00,
2013-03-24 11:29:00,32.6,23.9,29.93,ENE,71,6.0,7.0,70,0.00,,,0.00,LWC V2.11 B50,2013-03-24 15:29:00,
2013-03-24 11:35:00,32.7,23.0,29.93,ENE,72,2.0,4.0,67,0.00,,,0.00,LWC V2.11 B50,2013-03-24 15:35:00,
2013-03-24 11:40:00,32.9,22.8,29.92,East,86,3.0,7.0,66,0.00,,,0.00,LWC V2.11 B50,2013-03-24 15:40:00,
2013-03-24 11:45:00,32.9,23.2,29.92,East,84,3.0,6.0,67,0.00,,,0.00,LWC V2.11 B50,2013-03-24 15:45:00,
2013-03-24 11:50:00,33.0,22.5,29.92,ENE,74,6.0,8.0,65,0.00,,,0.00,LWC V2.11 B50,2013-03-24 15:50:00,
2013-03-24 11:55:00,32.9,22.4,29.92,East,94,2.0,4.0,65,0.00,,,0.00,LWC V2.11 B50,2013-03-24 15:55:00,
2013-03-24 12:00:00,33.2,22.4,29.91,SE,129,3.0,6.0,64,0.00,,,0.00,LWC V2.11 B50,2013-03-24 16:00:00,
2013-03-24 12:05:00,33.3,22.5,29.91,ENE,75,3.0,6.0,64,0.00,,,0.00,LWC V2.11 B50,2013-03-24 16:05:00,
2013-03-24 12:10:00,33.6,22.4,29.91,SE,125,3.0,4.0,63,0.00,,,0.00,LWC V2.11 B50,2013-03-24 16:10:00,
2013-03-24 12:15:00,33.9,23.0,29.90,ESE,113,2.0,3.0,64,0.00,,,0.00,LWC V2.11 B50,2013-03-24 16:15:00,
2013-03-24 12:20:00,34.1,22.5,29.90,ENE,68,8.0,9.0,62,0.00,,,0.00,LWC V2.11 B50,2013-03-24 16:20:00,
2013-03-24 12:25:00,34.1,21.7,29.90,East,86,6.0,13.0,60,0.00,,,0.00,LWC V2.11 B50,2013-03-24 16:25:00,
2013-03-24 12:30:00,34.1,21.7,29.89,NE,49,3.0,7.0,60,0.00,,,0.00,LWC V2.11 B50,2013-03-24 16:30:00,
2013-03-24 12:35:00,34.2,21.8,29.89,ENE,63,5.0,6.0,60,0.00,,,0.00,LWC V2.11 B50,2013-03-24 16:35:00,
2013-03-24 12:40:00,34.0,21.6,29.88,ENE,64,12.0,12.0,60,0.00,,,0.00,LWC V2.11 B50,2013-03-24 16:40:00,
2013-03-24 12:45:00,33.4,21.0,29.88,ENE,68,6.0,15.0,60,0.00,,,0.00,LWC V2.11 B50,2013-03-24 16:45:00,
2013-03-24 12:50:00,33.3,20.9,29.87,ENE,64,4.0,8.0,60,0.00,,,0.00,LWC V2.11 B50,2013-03-24 16:50:00,
2013-03-24 12:55:00,33.5,21.1,29.87,East,79,8.0,10.0,60,0.00,,,0.00,LWC V2.11 B50,2013-03-24 16:55:00,
2013-03-24 13:00:00,33.3,21.3,29.87,East,91,9.0,12.0,61,0.00,,,0.00,LWC V2.11 B50,2013-03-24 17:00:00,
2013-03-24 13:05:00,33.7,21.7,29.86,East,79,5.0,6.0,61,0.00,,,0.00,LWC V2.11 B50,2013-03-24 17:05:00,
2013-03-24 13:10:00,34.1,22.5,29.86,East,83,0.0,5.0,62,0.00,,,0.00,LWC V2.11 B50,2013-03-24 17:10:00,
2013-03-24 13:15:00,34.8,22.7,29.86,ENE,71,2.0,8.0,61,0.00,,,0.00,LWC V2.11 B50,2013-03-24 17:15:00,
2013-03-24 13:20:00,34.7,21.9,29.85,ENE,64,7.0,11.0,59,0.00,,,0.00,LWC V2.11 B50,2013-03-24 17:20:00,
2013-03-24 13:25:00,34.4,21.6,29.85,ENE,67,9.0,9.0,59,0.00,,,0.00,LWC V2.11 B50,2013-03-24 17:25:00,
2013-03-24 13:30:00,34.5,22.5,29.85,WNW,293,0.0,8.0,61,0.00,,,0.00,LWC V2.11 B50,2013-03-24 17:30:00,
2013-03-24 13:35:00,35.3,22.4,29.85,ENE,57,8.0,11.0,59,0.00,,,0.00,LWC V2.11 B50,2013-03-24 17:35:00,
2013-03-24 13:40:00,35.3,22.0,29.84,ENE,78,6.0,7.0,58,0.00,,,0.01,LWC V2.11 B50,2013-03-24 17:40:00,
2013-03-24 13:45:00,35.2,21.5,29.84,ENE,57,3.0,6.0,57,0.00,,,0.01,LWC V2.11 B50,2013-03-24 17:45:00,
2013-03-24 13:50:00,35.3,22.0,29.83,ENE,69,8.0,8.0,58,0.00,,,0.01,LWC V2.11 B50,2013-03-24 17:50:00,
2013-03-24 13:55:00,35.2,21.9,29.82,East,82,5.0,5.0,58,0.00,,,0.01,LWC V2.11 B50,2013-03-24 17:55:00,
2013-03-24 14:00:00,35.8,22.1,29.82,NE,51,4.0,11.0,57,0.00,,,0.01,LWC V2.11 B50,2013-03-24 18:00:00,
2013-03-24 14:05:00,36.5,22.3,29.81,NE,47,7.0,8.0,56,0.00,,,0.01,LWC V2.11 B50,2013-03-24 18:05:00,
2013-03-24 14:10:00,36.8,22.2,29.81,North,6,5.0,8.0,55,0.00,,,0.01,LWC V2.11 B50,2013-03-24 18:10:00,
2013-03-24 14:15:00,36.3,21.7,29.81,ENE,70,6.0,9.0,55,0.00,,,0.01,LWC V2.11 B50,2013-03-24 18:15:00,
2013-03-24 14:20:00,36.2,22.0,29.81,ENE,71,7.0,9.0,56,0.00,,,0.01,LWC V2.11 B50,2013-03-24 18:20:00,
2013-03-24 14:25:00,35.9,21.8,29.80,East,80,6.0,13.0,56,0.00,,,0.01,LWC V2.11 B50,2013-03-24 18:25:00,
2013-03-24 14:30:00,35.6,21.9,29.80,ESE,112,7.0,11.0,57,0.00,,,0.01,LWC V2.11 B50,2013-03-24 18:30:00,
2013-03-24 14:35:00,35.3,21.6,29.79,East,85,9.0,12.0,57,0.00,,,0.01,LWC V2.11 B50,2013-03-24 18:35:00,
2013-03-24 14:40:00,35.3,21.6,29.79,East,94,4.0,13.0,57,0.00,,,0.01,LWC V2.11 B50,2013-03-24 18:40:00,
2013-03-24 14:45:00,35.2,22.3,29.79,ENE,78,6.0,11.0,59,0.00,,,0.01,LWC V2.11 B50,2013-03-24 18:45:00,
2013-03-24 14:50:00,35.2,21.5,29.79,East,79,9.0,12.0,57,0.00,,,0.01,LWC V2.11 B50,2013-03-24 18:50:00,
2013-03-24 14:55:00,35.2,21.9,29.79,East,82,1.0,12.0,58,0.00,,,0.01,LWC V2.11 B50,2013-03-24 18:55:00,
2013-03-24 15:00:00,35.3,22.4,29.79,ENE,63,2.0,4.0,59,0.00,,,0.01,LWC V2.11 B50,2013-03-24 19:00:00,
2013-03-24 15:05:00,35.7,22.4,29.78,ENE,58,2.0,6.0,58,0.00,,,0.01,LWC V2.11 B50,2013-03-24 19:05:00,
2013-03-24 15:10:00,35.7,21.6,29.78,East,94,3.0,8.0,56,0.00,,,0.01,LWC V2.11 B50,2013-03-24 19:10:00,
2013-03-24 15:15:00,35.7,21.6,29.78,ENE,68,2.0,11.0,56,0.00,,,0.01,LWC V2.11 B50,2013-03-24 19:15:00,
2013-03-24 15:20:00,36.0,21.8,29.78,ENE,68,4.0,4.0,56,0.00,,,0.01,LWC V2.11 B50,2013-03-24 19:20:00,
2013-03-24 15:25:00,36.0,21.4,29.78,NNW,333,1.0,5.0,55,0.00,,,0.01,LWC V2.11 B50,2013-03-24 19:25:00,
2013-03-24 15:30:00,36.0,21.4,29.78,ENE,71,5.0,5.0,55,0.00,,,0.01,LWC V2.11 B50,2013-03-24 19:30:00,
2013-03-24 15:35:00,35.9,21.3,29.78,NE,41,6.0,8.0,55,0.00,,,0.01,LWC V2.11 B50,2013-03-24 19:35:00,
2013-03-24 15:40:00,35.8,21.2,29.78,NW,322,0.0,4.0,55,0.00,,,0.01,LWC V2.11 B50,2013-03-24 19:40:00,
2013-03-24 15:45:00,36.0,21.0,29.78,ENE,71,1.0,4.0,54,0.00,,,0.01,LWC V2.11 B50,2013-03-24 19:45:00,
2013-03-24 15:50:00,36.1,21.1,29.77,East,92,7.0,8.0,54,0.00,,,0.01,LWC V2.11 B50,2013-03-24 19:50:00,
2013-03-24 15:55:00,35.9,20.9,29.76,ENE,69,4.0,6.0,54,0.00,,,0.01,LWC V2.11 B50,2013-03-24 19:55:00,
2013-03-24 16:00:00,36.0,21.4,29.76,NNW,328,2.0,5.0,55,0.00,,,0.01,LWC V2.11 B50,2013-03-24 20:00:00,
2013-03-24 16:05:00,36.0,21.0,29.76,East,93,2.0,4.0,54,0.00,,,0.01,LWC V2.11 B50,2013-03-24 20:05:00,
2013-03-24 16:10:00,35.9,20.9,29.75,East,85,5.0,11.0,54,0.00,,,0.01,LWC V2.11 B50,2013-03-24 20:10:00,
2013-03-24 16:15:00,36.0,21.4,29.75,ENE,75,6.0,9.0,55,0.00,,,0.01,LWC V2.11 B50,2013-03-24 20:15:00,
2013-03-24 16:20:00,35.8,21.2,29.75,ENE,75,8.0,9.0,55,0.00,,,0.01,LWC V2.11 B50,2013-03-24 20:20:00,
2013-03-24 16:25:00,35.8,21.7,29.75,ENE,60,3.0,5.0,56,0.00,,,0.01,LWC V2.11 B50,2013-03-24 20:25:00,
2013-03-24 16:30:00,35.9,21.8,29.75,ENE,68,0.0,1.0,56,0.00,,,0.01,LWC V2.11 B50,2013-03-24 20:30:00,
2013-03-24 16:35:00,36.2,21.6,29.75,ENE,70,0.0,3.0,55,0.00,,,0.01,LWC V2.11 B50,2013-03-24 20:35:00,
2013-03-24 16:40:00,36.3,21.7,29.75,East,88,2.0,3.0,55,0.00,,,0.02,LWC V2.11 B50,2013-03-24 20:40:00,
2013-03-24 16:45:00,36.4,21.8,29.75,ENE,63,3.0,3.0,55,0.00,,,0.02,LWC V2.11 B50,2013-03-24 20:45:00,
2013-03-24 16:50:00,36.3,21.7,29.75,ENE,65,3.0,4.0,55,0.00,,,0.02,LWC V2.11 B50,2013-03-24 20:50:00,
2013-03-24 16:55:00,36.2,22.0,29.74,ENE,75,6.0,6.0,56,0.00,,,0.02,LWC V2.11 B50,2013-03-24 20:55:00,
2013-03-24 17:00:00,36.1,21.9,29.74,East,79,6.0,6.0,56,0.00,,,0.02,LWC V2.11 B50,2013-03-24 21:00:00,
2013-03-24 17:05:00,36.0,21.8,29.74,ENE,70,1.0,5.0,56,0.00,,,0.02,LWC V2.11 B50,2013-03-24 21:05:00,
2013-03-24 17:10:00,36.0,21.8,29.73,East,83,4.0,10.0,56,0.00,,,0.02,LWC V2.11 B50,2013-03-24 21:10:00,
2013-03-24 17:15:00,36.1,21.9,29.74,East,82,1.0,6.0,56,0.00,,,0.02,LWC V2.11 B50,2013-03-24 21:15:00,
2013-03-24 17:20:00,36.1,21.9,29.73,ENE,64,4.0,5.0,56,0.00,,,0.02,LWC V2.11 B50,2013-03-24 21:20:00,
2013-03-24 17:25:00,36.1,22.4,29.73,East,82,0.0,5.0,57,0.00,,,0.02,LWC V2.11 B50,2013-03-24 21:25:00,
2013-03-24 17:30:00,36.1,22.4,29.73,ENE,58,2.0,4.0,57,0.00,,,0.02,LWC V2.11 B50,2013-03-24 21:30:00,
2013-03-24 17:35:00,36.0,22.7,29.73,ENE,65,2.0,3.0,58,0.00,,,0.02,LWC V2.11 B50,2013-03-24 21:35:00,
2013-03-24 17:40:00,36.0,22.3,29.73,NE,54,3.0,4.0,57,0.00,,,0.02,LWC V2.11 B50,2013-03-24 21:40:00,
2013-03-24 17:45:00,36.0,22.3,29.72,NE,56,3.0,7.0,57,0.00,,,0.02,LWC V2.11 B50,2013-03-24 21:45:00,
2013-03-24 17:50:00,36.1,22.4,29.72,ENE,64,4.0,7.0,57,0.00,,,0.02,LWC V2.11 B50,2013-03-24 21:50:00,
2013-03-24 17:55:00,36.1,23.2,29.72,ENE,71,0.0,2.0,59,0.00,,,0.02,LWC V2.11 B50,2013-03-24 21:55:00,
2013-03-24 18:00:00,36.1,22.8,29.72,East,82,0.0,5.0,58,0.00,,,0.02,LWC V2.11 B50,2013-03-24 22:00:00,
2013-03-24 18:05:00,36.1,22.8,29.72,ENE,78,4.0,4.0,58,0.00,,,0.02,LWC V2.11 B50,2013-03-24 22:05:00,
2013-03-24 18:10:00,36.1,22.8,29.71,SE,141,3.0,5.0,58,0.00,,,0.02,LWC V2.11 B50,2013-03-24 22:10:00,
2013-03-24 18:15:00,36.1,22.8,29.71,NE,44,4.0,4.0,58,0.00,,,0.02,LWC V2.11 B50,2013-03-24 22:15:00,
2013-03-24 18:20:00,36.1,22.8,29.70,ENE,68,1.0,2.0,58,0.00,,,0.02,LWC V2.11 B50,2013-03-24 22:20:00,
2013-03-24 18:25:00,36.0,23.1,29.70,ENE,75,2.0,3.0,59,0.00,,,0.02,LWC V2.11 B50,2013-03-24 22:25:00,
2013-03-24 18:30:00,36.0,23.1,29.70,ENE,71,2.0,8.0,59,0.00,,,0.02,LWC V2.11 B50,2013-03-24 22:30:00,
2013-03-24 18:35:00,35.9,23.0,29.69,ENE,70,5.0,7.0,59,0.00,,,0.02,LWC V2.11 B50,2013-03-24 22:35:00,
2013-03-24 18:40:00,35.8,22.9,29.69,ENE,70,7.0,9.0,59,0.00,,,0.02,LWC V2.11 B50,2013-03-24 22:40:00,
2013-03-24 18:45:00,35.7,22.8,29.68,East,82,3.0,7.0,59,0.00,,,0.02,LWC V2.11 B50,2013-03-24 22:45:00,
2013-03-24 18:50:00,35.6,22.7,29.68,ENE,71,5.0,5.0,59,0.00,,,0.02,LWC V2.11 B50,2013-03-24 22:50:00,
2013-03-24 18:55:00,35.5,22.6,29.68,ENE,63,3.0,5.0,59,0.00,,,0.02,LWC V2.11 B50,2013-03-24 22:55:00,
2013-03-24 19:00:00,35.5,23.0,29.68,ENE,68,1.0,4.0,60,0.00,,,0.02,LWC V2.11 B50,2013-03-24 23:00:00,
2013-03-24 19:05:00,35.3,22.8,29.68,North,11,3.0,8.0,60,0.00,,,0.02,LWC V2.11 B50,2013-03-24 23:05:00,
2013-03-24 19:10:00,35.2,22.7,29.67,ENE,74,3.0,5.0,60,0.00,,,0.02,LWC V2.11 B50,2013-03-24 23:10:00,
2013-03-24 19:15:00,35.1,22.6,29.67,ENE,74,0.0,5.0,60,0.00,,,0.02,LWC V2.11 B50,2013-03-24 23:15:00,
2013-03-24 19:20:00,35.1,22.6,29.67,ENE,62,2.0,8.0,60,0.00,,,0.02,LWC V2.11 B50,2013-03-24 23:20:00,
2013-03-24 19:25:00,35.0,22.9,29.67,East,95,5.0,7.0,61,0.00,,,0.02,LWC V2.11 B50,2013-03-24 23:25:00,
2013-03-24 19:30:00,34.8,22.7,29.67,ENE,72,1.0,3.0,61,0.00,,,0.02,LWC V2.11 B50,2013-03-24 23:30:00,
2013-03-24 19:35:00,34.7,22.6,29.67,SE,146,3.0,5.0,61,0.00,,,0.02,LWC V2.11 B50,2013-03-24 23:35:00,
2013-03-24 19:40:00,34.6,22.6,29.66,East,79,1.0,5.0,61,0.00,,,0.02,LWC V2.11 B50,2013-03-24 23:40:00,
2013-03-24 19:45:00,34.5,22.5,29.66,East,96,1.0,6.0,61,0.00,,,0.02,LWC V2.11 B50,2013-03-24 23:45:00,
2013-03-24 19:50:00,34.4,22.4,29.66,ENE,77,5.0,6.0,61,0.00,,,0.02,LWC V2.11 B50,2013-03-24 23:50:00,
2013-03-24 19:55:00,34.4,22.4,29.66,ENE,77,0.0,4.0,61,0.00,,,0.02,LWC V2.11 B50,2013-03-24 23:55:00,
2013-03-24 20:00:00,34.3,22.3,29.66,ENE,64,5.0,7.0,61,0.00,,,0.02,LWC V2.11 B50,2013-03-25 00:00:00,
2013-03-24 20:05:00,34.3,22.3,29.66,ENE,74,1.0,6.0,61,0.00,,,0.02,LWC V2.11 B50,2013-03-25 00:05:00,
2013-03-24 20:10:00,34.3,22.3,29.66,ENE,64,3.0,6.0,61,0.00,,,0.02,LWC V2.11 B50,2013-03-25 00:10:00,
2013-03-24 20:15:00,34.3,22.3,29.66,ESE,103,0.0,1.0,61,0.00,,,0.02,LWC V2.11 B50,2013-03-25 00:15:00,
2013-03-24 20:20:00,34.3,22.7,29.66,ENE,77,4.0,5.0,62,0.00,,,0.02,LWC V2.11 B50,2013-03-25 00:20:00,
2013-03-24 20:25:00,34.3,22.3,29.67,ENE,64,0.0,0.0,61,0.00,,,0.02,LWC V2.11 B50,2013-03-25 00:25:00,
2013-03-24 20:30:00,34.2,22.6,29.67,East,96,0.0,1.0,62,0.00,,,0.02,LWC V2.11 B50,2013-03-25 00:30:00,
2013-03-24 20:35:00,34.1,22.1,29.67,ESE,119,0.0,1.0,61,0.00,,,0.02,LWC V2.11 B50,2013-03-25 00:35:00,
2013-03-24 20:40:00,34.0,22.4,29.67,ESE,108,0.0,0.0,62,0.00,,,0.02,LWC V2.11 B50,2013-03-25 00:40:00,
2013-03-24 20:45:00,33.9,22.3,29.67,ESE,108,0.0,0.0,62,0.00,,,0.02,LWC V2.11 B50,2013-03-25 00:45:00,
2013-03-24 20:50:00,33.8,22.9,29.67,SW,217,0.0,1.0,64,0.00,,,0.02,LWC V2.11 B50,2013-03-25 00:50:00,
2013-03-24 20:55:00,33.8,22.6,29.67,SSW,208,1.0,1.0,63,0.00,,,0.02,LWC V2.11 B50,2013-03-25 00:55:00,
2013-03-24 21:00:00,33.6,22.7,29.67,SSW,205,0.0,0.0,64,0.00,,,0.02,LWC V2.11 B50,2013-03-25 01:00:00,
2013-03-24 21:05:00,33.6,22.7,29.67,NNE,30,2.0,2.0,64,0.00,,,0.02,LWC V2.11 B50,2013-03-25 01:05:00,
2013-03-24 21:10:00,33.7,22.5,29.67,East,89,0.0,1.0,63,0.00,,,0.02,LWC V2.11 B50,2013-03-25 01:10:00,
2013-03-24 21:15:00,33.7,22.8,29.67,East,89,0.0,0.0,64,0.00,,,0.02,LWC V2.11 B50,2013-03-25 01:15:00,
2013-03-24 21:20:00,33.7,22.5,29.67,East,81,0.0,0.0,63,0.00,,,0.02,LWC V2.11 B50,2013-03-25 01:20:00,
2013-03-24 21:25:00,33.6,22.7,29.66,East,81,0.0,0.0,64,0.00,,,0.02,LWC V2.11 B50,2013-03-25 01:25:00,
2013-03-24 21:30:00,33.3,22.8,29.66,ENE,75,0.0,1.0,65,0.00,,,0.02,LWC V2.11 B50,2013-03-25 01:30:00,
2013-03-24 21:35:00,33.1,22.6,29.66,NE,51,0.0,1.0,65,0.00,,,0.02,LWC V2.11 B50,2013-03-25 01:35:00,
2013-03-24 21:40:00,32.9,22.8,29.66,NE,51,0.0,0.0,66,0.00,,,0.02,LWC V2.11 B50,2013-03-25 01:40:00,
2013-03-24 21:45:00,32.7,23.0,29.66,East,79,0.0,0.0,67,0.00,,,0.02,LWC V2.11 B50,2013-03-25 01:45:00,
2013-03-24 21:50:00,32.7,22.6,29.66,East,88,0.0,2.0,66,0.00,,,0.02,LWC V2.11 B50,2013-03-25 01:50:00,
2013-03-24 21:55:00,32.9,22.8,29.66,East,88,0.0,0.0,66,0.00,,,0.02,LWC V2.11 B50,2013-03-25 01:55:00,
2013-03-24 22:00:00,33.1,22.6,29.65,East,89,0.0,1.0,65,0.00,,,0.02,LWC V2.11 B50,2013-03-25 02:00:00,
2013-03-24 22:05:00,33.1,22.6,29.65,East,89,0.0,0.0,65,0.00,,,0.02,LWC V2.11 B50,2013-03-25 02:05:00,
2013-03-24 22:10:00,33.1,22.6,29.65,ESE,105,0.0,0.0,65,0.00,,,0.02,LWC V2.11 B50,2013-03-25 02:10:00,
2013-03-24 22:15:00,33.2,22.7,29.65,SE,130,0.0,1.0,65,0.00,,,0.02,LWC V2.11 B50,2013-03-25 02:15:00,
2013-03-24 22:20:00,33.3,22.8,29.65,SE,124,0.0,1.0,65,0.00,,,0.02,LWC V2.11 B50,2013-03-25 02:20:00,
2013-03-24 22:25:00,33.3,22.8,29.64,ESE,117,0.0,1.0,65,0.00,,,0.02,LWC V2.11 B50,2013-03-25 02:25:00,
2013-03-24 22:30:00,33.3,23.2,29.64,East,89,0.0,1.0,66,0.00,,,0.02,LWC V2.11 B50,2013-03-25 02:30:00,
2013-03-24 22:35:00,33.3,22.8,29.64,East,91,0.0,3.0,65,0.00,,,0.02,LWC V2.11 B50,2013-03-25 02:35:00,
2013-03-24 22:40:00,33.5,22.6,29.64,ENE,78,0.0,1.0,64,0.00,,,0.02,LWC V2.11 B50,2013-03-25 02:40:00,
2013-03-24 22:45:00,33.5,23.0,29.64,East,81,0.0,0.0,65,0.00,,,0.02,LWC V2.11 B50,2013-03-25 02:45:00,
2013-03-24 22:50:00,33.5,23.0,29.64,East,81,0.0,1.0,65,0.00,,,0.02,LWC V2.11 B50,2013-03-25 02:50:00,
2013-03-24 22:55:00,33.4,22.9,29.63,East,82,0.0,1.0,65,0.00,,,0.02,LWC V2.11 B50,2013-03-25 02:55:00,
2013-03-24 23:00:00,33.3,22.8,29.63,East,82,0.0,0.0,65,0.00,,,0.02,LWC V2.11 B50,2013-03-25 03:00:00,
2013-03-24 23:05:00,33.2,23.1,29.63,NE,56,0.0,0.0,66,0.00,,,0.02,LWC V2.11 B50,2013-03-25 03:05:00,
2013-03-24 23:10:00,33.0,23.3,29.62,NE,56,0.0,0.0,67,0.00,,,0.02,LWC V2.11 B50,2013-03-25 03:10:00,
2013-03-24 23:15:00,32.8,23.1,29.62,ENE,77,0.0,0.0,67,0.00,,,0.02,LWC V2.11 B50,2013-03-25 03:15:00,
2013-03-24 23:20:00,32.6,23.6,29.62,ENE,77,0.0,1.0,69,0.00,,,0.02,LWC V2.11 B50,2013-03-25 03:20:00,
2013-03-24 23:25:00,32.3,23.3,29.62,ENE,77,0.0,0.0,69,0.00,,,0.02,LWC V2.11 B50,2013-03-25 03:25:00,
2013-03-24 23:30:00,32.1,22.8,29.61,ENE,77,0.0,0.0,68,0.00,,,0.02,LWC V2.11 B50,2013-03-25 03:30:00,
2013-03-24 23:35:00,32.4,23.0,29.61,East,84,0.0,1.0,68,0.00,,,0.02,LWC V2.11 B50,2013-03-25 03:35:00,
2013-03-24 23:40:00,32.7,23.0,29.61,ENE,74,0.0,1.0,67,0.00,,,0.02,LWC V2.11 B50,2013-03-25 03:40:00,
2013-03-24 23:45:00,32.9,23.2,29.61,East,94,0.0,0.0,67,0.00,,,0.02,LWC V2.11 B50,2013-03-25 03:45:00,
2013-03-24 23:50:00,33.0,23.3,29.61,East,81,0.0,1.0,67,0.00,,,0.02,LWC V2.11 B50,2013-03-25 03:50:00,
2013-03-24 23:55:00,33.1,23.4,29.61,East,84,0.0,1.0,67,0.00,,,0.02,LWC V2.11 B50,2013-03-25 03:55:00,